createdAt,value
2023-12-05T00:00:19.520Z,11.09
2023-12-05T00:02:47.096Z,11.03
2023-12-05T00:05:14.926Z,11.08
2023-12-05T00:07:44.512Z,11.15
2023-12-05T00:10:11.930Z,11.24
2023-12-05T00:12:39.575Z,11.30
2023-12-05T00:15:07.374Z,11.36
2023-12-05T00:17:34.950Z,11.44
2023-12-05T00:20:02.262Z,11.54
2023-12-05T00:22:29.820Z,11.64
2023-12-05T00:24:57.249Z,11.75
2023-12-05T00:27:24.683Z,11.87
2023-12-05T00:29:52.043Z,11.94
2023-12-05T00:32:19.439Z,11.94
2023-12-05T00:34:47.364Z,11.94
2023-12-05T00:37:15.010Z,12.01
2023-12-05T00:39:42.315Z,12.04
2023-12-05T00:42:09.574Z,12.10
2023-12-05T00:44:36.838Z,12.13
2023-12-05T00:47:06.301Z,12.16
2023-12-05T00:49:37.413Z,12.12
2023-12-05T00:52:05.237Z,12.06
2023-12-05T00:54:32.680Z,11.96
2023-12-05T00:57:00.147Z,11.96
2023-12-05T00:59:27.478Z,11.94
2023-12-05T01:01:54.869Z,11.93
2023-12-05T01:04:22.321Z,11.95
2023-12-05T01:06:49.820Z,11.93
2023-12-05T01:09:17.152Z,11.87
2023-12-05T01:11:44.729Z,11.78
2023-12-05T01:14:12.056Z,11.72
2023-12-05T01:16:46.002Z,11.73
2023-12-05T01:19:13.534Z,11.73
2023-12-05T01:21:41.113Z,11.78
2023-12-05T01:24:08.620Z,11.82
2023-12-05T01:26:35.996Z,11.87
2023-12-05T01:29:04.354Z,11.90
2023-12-05T01:31:31.742Z,11.88
2023-12-05T01:33:59.080Z,11.87
2023-12-05T01:36:28.323Z,11.85
2023-12-05T01:38:56.514Z,11.81
2023-12-05T01:41:24.791Z,11.82
2023-12-05T01:43:52.295Z,11.78
2023-12-05T01:46:21.553Z,11.77
2023-12-05T01:48:49.748Z,11.74
2023-12-05T01:51:18.282Z,11.70
2023-12-05T01:53:45.948Z,11.63
2023-12-05T01:56:14.753Z,11.58
2023-12-05T01:58:42.336Z,11.52
2023-12-05T02:01:11.511Z,11.46
2023-12-05T02:03:40.891Z,11.37
2023-12-05T02:06:09.355Z,11.31
2023-12-05T02:08:38.643Z,11.28
2023-12-05T02:11:06.481Z,11.36
2023-12-05T02:13:33.885Z,11.41
2023-12-05T02:16:32.789Z,11.47
2023-12-05T02:19:27.330Z,11.52
2023-12-05T02:21:58.978Z,11.60
2023-12-05T02:24:40.052Z,11.72
2023-12-05T02:27:18.379Z,11.86
2023-12-05T02:29:52.609Z,12.00
2023-12-05T02:32:20.592Z,12.14
2023-12-05T02:34:48.261Z,12.23
2023-12-05T02:37:33.894Z,12.30
2023-12-05T02:40:15.918Z,12.37
2023-12-05T02:42:49.045Z,12.42
2023-12-05T02:45:25.740Z,12.52
2023-12-05T02:47:54.088Z,12.60
2023-12-05T02:50:21.577Z,12.65
2023-12-05T02:52:49.047Z,12.67
2023-12-05T02:55:16.305Z,12.69
2023-12-05T02:57:43.637Z,12.73
2023-12-05T03:00:11.583Z,12.73
2023-12-05T03:02:38.981Z,12.76
2023-12-05T03:05:07.403Z,12.80
2023-12-05T03:07:34.712Z,12.84
2023-12-05T03:10:02.092Z,12.82
2023-12-05T03:12:30.550Z,12.84
2023-12-05T03:14:57.891Z,12.84
2023-12-05T03:17:25.357Z,12.85
2023-12-05T03:19:52.764Z,12.87
2023-12-05T03:22:20.275Z,12.84
2023-12-05T03:24:47.509Z,12.91
2023-12-05T03:27:15.079Z,12.87
2023-12-05T03:29:42.293Z,12.90
2023-12-05T03:32:09.570Z,12.93
2023-12-05T03:34:36.927Z,12.95
2023-12-05T03:37:04.304Z,12.94
2023-12-05T03:39:31.727Z,12.90
2023-12-05T03:41:58.983Z,12.86
2023-12-05T03:44:26.414Z,12.83
2023-12-05T03:46:53.726Z,12.77
2023-12-05T03:49:21.196Z,12.75
2023-12-05T03:51:48.485Z,12.74
2023-12-05T03:54:15.930Z,12.66
2023-12-05T03:56:43.191Z,12.57
2023-12-05T03:59:10.511Z,12.43
2023-12-05T04:01:37.896Z,12.34
2023-12-05T04:04:05.495Z,12.22
2023-12-05T04:06:33.065Z,12.08
2023-12-05T04:09:00.527Z,12.01
2023-12-05T04:11:32.379Z,11.93
2023-12-05T04:14:00.754Z,11.87
2023-12-05T04:16:28.545Z,11.78
2023-12-05T04:18:56.140Z,11.77
2023-12-05T04:21:23.509Z,11.67
2023-12-05T04:23:50.917Z,11.63
2023-12-05T04:26:19.711Z,11.65
2023-12-05T04:28:48.026Z,11.68
2023-12-05T04:31:15.572Z,11.72
2023-12-05T04:33:44.102Z,11.77
2023-12-05T04:36:12.280Z,11.71
2023-12-05T04:38:40.064Z,11.71
2023-12-05T04:41:07.549Z,11.72
2023-12-05T04:43:34.902Z,11.68
2023-12-05T04:46:02.345Z,11.59
2023-12-05T04:48:29.715Z,11.59
2023-12-05T04:50:57.268Z,11.59
2023-12-05T04:53:24.639Z,11.62
2023-12-05T04:55:52.084Z,11.60
2023-12-05T04:58:19.451Z,11.59
2023-12-05T05:00:46.855Z,11.55
2023-12-05T05:03:15.001Z,11.50
2023-12-05T05:05:42.398Z,11.47
2023-12-05T05:08:09.824Z,11.46
2023-12-05T05:10:37.091Z,11.42
2023-12-05T05:13:04.520Z,11.43
2023-12-05T05:15:31.776Z,11.41
2023-12-05T05:17:59.462Z,11.37
2023-12-05T05:20:26.880Z,11.40
2023-12-05T05:22:54.404Z,11.43
2023-12-05T05:25:22.089Z,11.43
2023-12-05T05:27:49.587Z,11.51
2023-12-05T05:30:17.142Z,11.54
2023-12-05T05:32:45.268Z,11.59
2023-12-05T05:35:12.917Z,11.61
2023-12-05T05:37:40.941Z,11.64
2023-12-05T05:40:08.905Z,11.65
2023-12-05T05:42:36.391Z,11.66
2023-12-05T05:45:05.013Z,11.65
2023-12-05T05:47:33.079Z,11.70
2023-12-05T05:52:32.696Z,11.82
2023-12-05T05:55:00.119Z,11.89
2023-12-05T05:57:28.440Z,11.94
2023-12-05T05:59:55.707Z,11.97
2023-12-05T06:02:23.159Z,11.99
2023-12-05T06:04:50.539Z,12.02
2023-12-05T06:07:18.431Z,12.08
2023-12-05T06:09:46.864Z,12.15
2023-12-05T06:12:14.301Z,12.22
2023-12-05T06:14:41.877Z,12.27
2023-12-05T06:17:09.169Z,12.32
2023-12-05T06:19:36.711Z,12.32
2023-12-05T06:22:04.607Z,12.30
2023-12-05T06:24:32.072Z,12.28
2023-12-05T06:26:59.469Z,12.25
2023-12-05T06:29:27.592Z,12.24
2023-12-05T06:31:54.902Z,12.24
2023-12-05T06:34:22.465Z,12.24
2023-12-05T06:36:49.760Z,12.25
2023-12-05T06:39:17.216Z,12.26
2023-12-05T06:41:44.631Z,12.26
2023-12-05T06:44:11.988Z,12.24
2023-12-05T06:46:39.485Z,12.26
2023-12-05T06:49:06.966Z,12.30
2023-12-05T06:51:34.564Z,12.36
2023-12-05T06:54:01.886Z,12.47
2023-12-05T06:56:29.127Z,12.53
2023-12-05T06:58:56.420Z,12.63
2023-12-05T07:01:23.764Z,12.74
2023-12-05T07:03:56.779Z,12.83
2023-12-05T07:06:25.358Z,12.95
2023-12-05T07:08:52.751Z,13.01
2023-12-05T07:11:20.458Z,13.08
2023-12-05T07:13:49.484Z,13.12
2023-12-05T07:16:16.920Z,13.16
2023-12-05T07:18:44.345Z,13.23
2023-12-05T07:21:12.445Z,13.29
2023-12-05T07:23:41.020Z,13.31
2023-12-05T07:26:09.098Z,13.37
2023-12-05T07:28:36.561Z,13.46
2023-12-05T07:31:03.964Z,13.42
2023-12-05T07:33:31.590Z,13.37
2023-12-05T07:35:59.248Z,13.36
2023-12-05T07:38:26.589Z,13.38
2023-12-05T07:40:53.876Z,13.41
2023-12-05T07:43:21.156Z,13.45
2023-12-05T07:45:48.540Z,13.51
2023-12-05T07:48:16.676Z,13.61
2023-12-05T07:50:45.278Z,13.65
2023-12-05T07:53:13.339Z,13.70
2023-12-05T07:55:40.579Z,13.77
2023-12-05T07:58:08.024Z,13.83
2023-12-05T08:00:35.965Z,13.89
2023-12-05T08:03:03.489Z,13.93
2023-12-05T08:05:30.991Z,13.94
2023-12-05T08:07:58.386Z,14.04
2023-12-05T08:10:25.711Z,14.10
2023-12-05T08:12:53.138Z,14.10
2023-12-05T08:15:22.165Z,14.14
2023-12-05T08:17:49.903Z,14.18
2023-12-05T08:20:17.167Z,14.23
2023-12-05T08:22:44.497Z,14.34
2023-12-05T08:25:13.009Z,14.47
2023-12-05T08:27:40.444Z,14.62
2023-12-05T08:30:08.347Z,14.70
2023-12-05T08:32:36.084Z,14.75
2023-12-05T08:35:03.786Z,14.78
2023-12-05T08:37:32.877Z,14.84
2023-12-05T08:40:00.221Z,14.90
2023-12-05T08:42:29.473Z,14.96
2023-12-05T08:44:56.805Z,15.11
2023-12-05T08:47:24.262Z,15.27
2023-12-05T08:49:51.538Z,15.44
2023-12-05T08:52:21.446Z,15.63
2023-12-05T08:54:48.968Z,15.69
2023-12-05T08:57:16.423Z,15.62
2023-12-05T08:59:44.346Z,15.62
2023-12-05T09:02:11.898Z,15.59
2023-12-05T09:04:39.315Z,15.54
2023-12-05T09:07:07.263Z,15.48
2023-12-05T09:09:34.636Z,15.33
2023-12-05T09:12:02.456Z,15.06
2023-12-05T09:14:29.733Z,14.81
2023-12-05T09:16:57.099Z,14.53
2023-12-05T09:19:24.346Z,14.36
2023-12-05T09:21:53.623Z,14.16
2023-12-05T09:24:21.087Z,14.01
2023-12-05T09:26:48.354Z,13.92
2023-12-05T09:29:15.715Z,13.77
2023-12-05T09:31:43.129Z,13.66
2023-12-05T09:34:10.468Z,13.55
2023-12-05T09:36:37.923Z,13.45
2023-12-05T09:39:05.739Z,13.35
2023-12-05T09:41:39.807Z,13.29
2023-12-05T09:44:08.396Z,13.28
2023-12-05T09:46:47.260Z,13.09
2023-12-05T09:49:18.743Z,12.95
2023-12-05T09:51:47.941Z,12.80
2023-12-05T09:54:16.305Z,12.75
2023-12-05T09:56:44.055Z,12.73
2023-12-05T09:59:12.071Z,12.67
2023-12-05T10:01:43.306Z,12.74
2023-12-05T10:04:18.399Z,12.78
2023-12-05T10:06:48.134Z,12.89
2023-12-05T10:09:16.599Z,12.94
2023-12-05T10:11:45.554Z,12.99
2023-12-05T10:14:13.248Z,13.01
2023-12-05T10:16:40.837Z,13.08
2023-12-05T10:19:11.128Z,13.16
2023-12-05T10:21:38.785Z,13.29
2023-12-05T10:24:06.347Z,13.36
2023-12-05T10:26:33.716Z,13.43
2023-12-05T10:29:01.145Z,13.36
2023-12-05T10:31:29.268Z,13.33
2023-12-05T10:34:07.351Z,13.34
2023-12-05T10:36:35.121Z,13.37
2023-12-05T10:39:02.492Z,13.41
2023-12-05T10:41:31.375Z,13.44
2023-12-05T10:43:58.772Z,13.53
2023-12-05T10:46:29.415Z,13.73
2023-12-05T10:48:57.416Z,13.91
2023-12-05T10:51:28.733Z,14.11
2023-12-05T10:53:57.430Z,14.24
2023-12-05T10:56:25.293Z,14.35
2023-12-05T10:58:54.450Z,14.44
2023-12-05T11:01:23.257Z,14.57
2023-12-05T11:03:52.850Z,14.63
2023-12-05T11:06:23.064Z,14.56
2023-12-05T11:08:50.636Z,14.60
2023-12-05T11:11:20.209Z,14.67
2023-12-05T11:13:49.369Z,14.71
2023-12-05T11:16:29.659Z,14.70
2023-12-05T11:19:29.718Z,14.72
2023-12-05T11:22:17.598Z,14.65
2023-12-05T11:25:11.058Z,14.62
2023-12-05T11:28:15.715Z,14.59
2023-12-05T11:31:09.014Z,14.61
2023-12-05T11:34:18.071Z,14.66
2023-12-05T11:37:13.320Z,14.68
2023-12-05T11:39:41.211Z,14.82
2023-12-05T11:42:12.232Z,14.94
2023-12-05T11:44:40.809Z,15.07
2023-12-05T11:47:34.550Z,15.16
2023-12-05T11:50:03.713Z,15.18
2023-12-05T11:52:40.848Z,15.19
2023-12-05T11:55:10.539Z,15.22
2023-12-05T11:57:38.088Z,15.19
2023-12-05T12:00:11.442Z,15.13
2023-12-05T12:02:44.375Z,15.16
2023-12-05T12:05:13.774Z,15.00
2023-12-05T12:07:58.465Z,15.06
2023-12-05T12:10:29.595Z,15.06
2023-12-05T12:12:57.679Z,15.09
2023-12-05T12:15:26.060Z,15.09
2023-12-05T12:17:53.619Z,15.04
2023-12-05T12:20:21.132Z,15.01
2023-12-05T12:22:52.781Z,14.94
2023-12-05T12:25:20.556Z,14.86
2023-12-05T12:27:48.618Z,14.70
2023-12-05T12:30:19.781Z,14.60
2023-12-05T12:32:58.362Z,14.59
2023-12-05T12:35:26.964Z,14.54
2023-12-05T12:37:56.104Z,14.55
2023-12-05T12:40:24.165Z,14.56
2023-12-05T12:42:56.436Z,14.68
2023-12-05T12:45:26.707Z,14.86
2023-12-05T12:47:54.556Z,14.87
2023-12-05T12:50:22.055Z,14.86
2023-12-05T12:52:50.072Z,14.85
2023-12-05T12:55:18.678Z,14.82
2023-12-05T12:57:46.390Z,14.79
2023-12-05T13:00:31.672Z,14.72
2023-12-05T13:03:03.112Z,14.57
2023-12-05T13:05:36.839Z,14.48
2023-12-05T13:08:05.520Z,14.36
2023-12-05T13:10:33.549Z,14.23
2023-12-05T13:13:03.792Z,14.21
2023-12-05T13:15:32.177Z,14.17
2023-12-05T13:18:08.492Z,14.16
2023-12-05T13:20:54.145Z,14.12
2023-12-05T13:23:23.304Z,14.10
2023-12-05T13:25:50.927Z,14.19
2023-12-05T13:28:19.955Z,14.31
2023-12-05T13:30:47.444Z,14.53
2023-12-05T13:33:17.132Z,14.75
2023-12-05T13:35:44.755Z,15.01
2023-12-05T13:38:13.069Z,15.19
2023-12-05T13:40:40.335Z,15.32
2023-12-05T13:43:08.270Z,15.41
2023-12-05T13:45:35.723Z,15.47
2023-12-05T13:48:03.449Z,15.40
2023-12-05T13:50:30.910Z,15.42
2023-12-05T13:52:58.401Z,15.43
2023-12-05T13:55:26.297Z,15.47
2023-12-05T13:57:54.646Z,15.41
2023-12-05T14:00:22.196Z,15.30
2023-12-05T14:02:49.691Z,15.32
2023-12-05T14:05:17.234Z,15.51
2023-12-05T14:07:44.880Z,15.52
2023-12-05T14:10:12.235Z,15.60
2023-12-05T14:12:39.716Z,15.55
2023-12-05T14:15:08.140Z,15.64
2023-12-05T14:17:35.553Z,15.63
2023-12-05T14:20:08.032Z,15.63
2023-12-05T14:22:35.567Z,15.68
2023-12-05T14:25:03.010Z,15.79
2023-12-05T14:27:30.609Z,15.79
2023-12-05T14:29:57.860Z,15.73
2023-12-05T14:32:25.305Z,15.59
2023-12-05T14:34:52.765Z,15.58
2023-12-05T14:37:20.239Z,15.59
2023-12-05T14:39:48.814Z,15.49
2023-12-05T14:42:20.436Z,15.40
2023-12-05T14:44:47.867Z,15.30
2023-12-05T14:47:15.249Z,15.19
2023-12-05T14:49:42.797Z,15.12
2023-12-05T14:52:10.404Z,15.06
2023-12-05T14:54:38.700Z,15.04
2023-12-05T14:57:06.386Z,14.99
2023-12-05T14:59:33.653Z,14.97
2023-12-05T15:02:01.143Z,14.95
2023-12-05T15:04:28.690Z,14.95
2023-12-05T15:06:56.864Z,14.91
2023-12-05T15:09:25.772Z,14.87
2023-12-05T15:11:53.372Z,14.84
2023-12-05T15:14:20.740Z,14.81
2023-12-05T15:16:48.803Z,14.77
2023-12-05T15:19:16.491Z,14.75
2023-12-05T15:21:45.343Z,14.72
2023-12-05T15:24:12.575Z,14.75
2023-12-05T15:26:40.157Z,14.74
2023-12-05T15:29:07.748Z,14.77
2023-12-05T15:31:35.129Z,14.74
2023-12-05T15:34:02.613Z,14.73
2023-12-05T15:36:30.104Z,14.73
2023-12-05T15:38:57.458Z,14.73
2023-12-05T15:41:24.789Z,14.75
2023-12-05T15:43:53.333Z,14.74
2023-12-05T15:46:24.360Z,14.72
2023-12-05T15:48:52.450Z,14.69
2023-12-05T15:51:20.255Z,14.64
2023-12-05T15:53:47.953Z,14.65
2023-12-05T15:56:15.610Z,14.58
2023-12-05T15:58:43.897Z,14.51
2023-12-05T16:01:11.346Z,14.46
2023-12-05T16:03:38.819Z,14.25
2023-12-05T16:06:08.160Z,14.06
2023-12-05T16:08:35.590Z,13.89
2023-12-05T16:11:03.001Z,13.72
2023-12-05T16:13:30.434Z,13.60
2023-12-05T16:15:58.533Z,13.54
2023-12-05T16:18:26.079Z,13.48
2023-12-05T16:20:53.348Z,13.44
2023-12-05T16:23:22.317Z,13.48
2023-12-05T16:25:52.104Z,13.49
2023-12-05T16:28:19.532Z,13.50
2023-12-05T16:30:47.107Z,13.50
2023-12-05T16:33:14.578Z,13.55
2023-12-05T16:35:41.911Z,13.56
2023-12-05T16:38:09.391Z,13.57
2023-12-05T16:40:36.908Z,13.55
2023-12-05T16:43:04.277Z,13.58
2023-12-05T16:45:31.789Z,13.59
2023-12-05T16:48:00.243Z,13.64
2023-12-05T16:50:27.950Z,13.65
2023-12-05T16:52:55.221Z,13.65
2023-12-05T16:55:22.576Z,13.63
2023-12-05T16:57:50.005Z,13.58
2023-12-05T17:00:18.399Z,13.55
2023-12-05T17:02:46.034Z,13.56
2023-12-05T17:05:14.252Z,13.56
2023-12-05T17:07:41.832Z,13.58
2023-12-05T17:10:09.451Z,13.57
2023-12-05T17:12:36.848Z,13.54
2023-12-05T17:15:05.539Z,13.53
2023-12-05T17:17:34.905Z,13.54
2023-12-05T17:20:02.642Z,13.52
2023-12-05T17:22:32.916Z,13.51
2023-12-05T17:25:00.921Z,13.49
2023-12-05T17:27:28.467Z,13.46
2023-12-05T17:29:57.059Z,13.45
2023-12-05T17:32:27.611Z,13.46
2023-12-05T17:34:56.387Z,13.43
2023-12-05T17:37:24.318Z,13.40
2023-12-05T17:39:52.043Z,13.37
2023-12-05T17:42:20.868Z,13.33
2023-12-05T17:44:52.818Z,13.29
2023-12-05T17:47:21.825Z,13.25
2023-12-05T17:49:50.688Z,13.23
2023-12-05T17:52:18.040Z,13.20
2023-12-05T17:54:45.345Z,13.14
2023-12-05T17:57:13.426Z,13.16
2023-12-05T17:59:40.836Z,13.11
2023-12-05T18:02:08.123Z,13.11
2023-12-05T18:04:35.608Z,13.10
2023-12-05T18:07:50.361Z,13.08
2023-12-05T18:09:52.466Z,13.06
2023-12-05T18:12:20.860Z,13.06
2023-12-05T18:14:48.634Z,13.01
2023-12-05T18:17:16.182Z,13.00
2023-12-05T18:19:48.490Z,12.96
2023-12-05T18:22:18.540Z,12.94
2023-12-05T18:24:46.240Z,12.88
2023-12-05T18:27:13.593Z,12.86
2023-12-05T18:29:42.039Z,12.89
2023-12-05T18:32:09.562Z,12.91
2023-12-05T18:34:37.150Z,12.94
2023-12-05T18:37:06.340Z,13.00
2023-12-05T18:39:35.655Z,13.01
2023-12-05T18:42:06.011Z,12.99
2023-12-05T18:44:33.689Z,13.04
2023-12-05T18:47:01.104Z,13.04
2023-12-05T18:49:28.878Z,13.03
2023-12-05T18:51:56.701Z,13.00
2023-12-05T18:54:24.172Z,13.02
2023-12-05T18:56:51.388Z,13.00
2023-12-05T18:59:19.384Z,12.95
2023-12-05T19:01:47.510Z,12.89
2023-12-05T19:04:15.010Z,12.85
2023-12-05T19:06:42.851Z,12.80
2023-12-05T19:09:10.193Z,12.78
2023-12-05T19:11:38.042Z,12.74
2023-12-05T19:14:05.386Z,12.72
2023-12-05T19:16:34.801Z,12.71
2023-12-05T19:19:05.466Z,12.73
2023-12-05T19:21:32.899Z,12.77
2023-12-05T19:24:00.450Z,12.75
2023-12-05T19:26:29.408Z,12.75
2023-12-05T19:29:00.111Z,12.77
2023-12-05T19:31:30.322Z,12.79
2023-12-05T19:33:58.205Z,12.79
2023-12-05T19:36:26.053Z,12.78
2023-12-05T19:38:53.981Z,12.76
2023-12-05T19:41:21.490Z,12.74
2023-12-05T19:43:49.301Z,12.74
2023-12-05T19:46:16.783Z,12.72
2023-12-05T19:48:45.610Z,12.70
2023-12-05T19:51:13.199Z,12.67
2023-12-05T19:53:40.631Z,12.62
2023-12-05T19:56:08.417Z,12.54
2023-12-05T19:58:37.080Z,12.51
2023-12-05T20:01:04.743Z,12.44
2023-12-05T20:03:32.470Z,12.41
2023-12-05T20:06:00.978Z,12.40
2023-12-05T20:08:28.288Z,12.34
2023-12-05T20:10:55.738Z,12.30
2023-12-05T20:13:23.944Z,12.27
2023-12-05T20:15:51.523Z,12.20
2023-12-05T20:18:19.108Z,12.15
2023-12-05T20:20:46.650Z,12.13
2023-12-05T20:23:13.886Z,12.12
2023-12-05T20:25:41.896Z,12.08
2023-12-05T20:28:09.349Z,12.06
2023-12-05T20:30:36.703Z,12.01
2023-12-05T20:33:04.138Z,11.99
2023-12-05T20:35:31.464Z,11.96
2023-12-05T20:37:58.849Z,11.96
2023-12-05T20:40:26.173Z,12.00
2023-12-05T20:42:53.970Z,12.03
2023-12-05T20:45:21.649Z,12.01
2023-12-05T20:47:49.249Z,12.04
2023-12-05T20:50:16.632Z,12.07
2023-12-05T20:52:44.018Z,12.10
2023-12-05T20:55:11.398Z,12.16
2023-12-05T20:57:38.961Z,12.18
2023-12-05T21:00:07.174Z,12.24
2023-12-05T21:02:34.997Z,12.31
2023-12-05T21:05:02.562Z,12.42
2023-12-05T21:07:31.414Z,12.44
2023-12-05T21:10:00.404Z,12.46
2023-12-05T21:12:27.784Z,12.48
2023-12-05T21:14:55.525Z,12.48
2023-12-05T21:17:23.096Z,12.43
2023-12-05T21:19:51.250Z,12.37
2023-12-05T21:22:18.653Z,12.33
2023-12-05T21:24:46.097Z,12.26
2023-12-05T21:27:13.496Z,12.18
2023-12-05T21:29:40.722Z,12.10
2023-12-05T21:32:08.053Z,11.99
2023-12-05T21:34:36.098Z,11.93
2023-12-05T21:37:03.687Z,11.87
2023-12-05T21:39:32.757Z,11.85
2023-12-05T21:42:00.268Z,11.81
2023-12-05T21:44:27.560Z,11.83
2023-12-05T21:46:55.492Z,11.81
2023-12-05T21:49:23.046Z,11.84
2023-12-05T21:51:50.964Z,11.90
2023-12-05T21:54:18.378Z,11.95
2023-12-05T21:56:45.703Z,11.96
2023-12-05T21:59:12.932Z,11.95
2023-12-05T22:01:40.427Z,12.03
2023-12-05T22:04:07.936Z,12.05
2023-12-05T22:06:35.477Z,12.03
2023-12-05T22:09:02.941Z,12.03
2023-12-05T22:11:30.732Z,12.18
2023-12-05T22:13:58.078Z,12.23
2023-12-05T22:16:26.152Z,12.31
2023-12-05T22:18:53.642Z,12.45
2023-12-05T22:21:21.451Z,12.54
2023-12-05T22:23:49.093Z,12.57
2023-12-05T22:26:19.960Z,12.58
2023-12-05T22:28:47.841Z,12.58
2023-12-05T22:31:15.403Z,12.62
2023-12-05T22:33:42.897Z,12.68
2023-12-05T22:36:10.659Z,12.65
2023-12-05T22:38:41.251Z,12.60
2023-12-05T22:41:12.390Z,12.57
2023-12-05T22:43:39.825Z,12.57
2023-12-05T22:46:15.929Z,12.57
2023-12-05T22:48:45.180Z,12.55
2023-12-05T22:51:13.052Z,12.52
2023-12-05T22:56:08.870Z,12.59
2023-12-05T22:58:36.212Z,12.61
2023-12-05T23:01:03.652Z,12.61
2023-12-05T23:03:31.192Z,12.68
2023-12-05T23:05:58.591Z,12.73
2023-12-05T23:08:26.108Z,12.79
2023-12-05T23:10:54.854Z,12.87
2023-12-05T23:13:22.692Z,12.95
2023-12-05T23:15:50.737Z,12.95
2023-12-05T23:18:18.200Z,12.96
2023-12-05T23:20:45.612Z,12.94
2023-12-05T23:23:12.924Z,12.95
2023-12-05T23:25:40.298Z,12.94
2023-12-05T23:28:12.098Z,12.90
2023-12-05T23:30:43.160Z,12.84
2023-12-05T23:33:10.611Z,12.78
2023-12-05T23:35:38.112Z,12.73
2023-12-05T23:38:05.434Z,12.69
2023-12-05T23:40:32.987Z,12.55
2023-12-05T23:43:00.981Z,12.43
2023-12-05T23:45:28.256Z,12.35
2023-12-05T23:47:55.685Z,12.25
2023-12-05T23:50:23.792Z,12.16
2023-12-05T23:52:51.318Z,12.07
2023-12-05T23:55:18.550Z,11.93
2023-12-05T23:57:46.075Z,11.80
